Time;durP1;ratioP1;P1;durP2;ratioP2;P2;SDS_P1;SDS_P2;PMS_P1;PMS_P2;Temp;Humidity;BMP_temperature;BMP_pressure;BME280_temperature;BME280_humidity;BME280_pressure;Samples;Min_cycle;Max_cycle;Signal;HPM_P1;HPM_P2
2021/04/13 00:01:13;;;;;;;2.90;1.87;;;;;;;1.70;100.00;102075.34;4913489;29;20288;-68
2021/04/13 00:03:44;;;;;;;5.10;2.30;;;;;;;1.53;100.00;102076.50;4913192;29;20224;-69
2021/04/13 00:06:31;;;;;;;2.20;2.00;;;;;;;1.55;100.00;102071.81;4896875;29;20283;-68
2021/04/13 00:09:06;;;;;;;2.73;2.30;;;;;;;1.53;100.00;102076.50;4900026;29;20689;-69
2021/04/13 00:11:32;;;;;;;3.37;2.40;;;;;;;1.66;100.00;102071.38;4881751;29;20228;-68
2021/04/13 00:13:57;;;;;;;3.73;2.30;;;;;;;1.66;100.00;102068.69;4865180;29;20208;-69
2021/04/13 00:16:24;;;;;;;3.07;2.37;;;;;;;1.65;100.00;102069.72;4913211;29;20700;-68
2021/04/13 00:18:50;;;;;;;4.90;2.63;;;;;;;1.67;100.00;102068.53;4865864;29;20214;-68
2021/04/13 00:21:27;;;;;;;3.77;2.57;;;;;;;1.66;100.00;102068.69;4881031;29;20232;-69
2021/04/13 00:23:53;;;;;;;3.37;2.40;;;;;;;1.61;100.00;102073.75;4910529;29;20303;-69
2021/04/13 00:26:25;;;;;;;2.47;2.20;;;;;;;1.60;100.00;102066.75;4864782;29;20227;-69
2021/04/13 00:28:51;;;;;;;3.03;2.60;;;;;;;1.52;100.00;102072.19;4912187;29;20216;-69
2021/04/13 00:31:38;;;;;;;2.50;2.17;;;;;;;1.47;100.00;102076.41;4896349;29;20368;-68
2021/04/13 00:34:07;;;;;;;5.03;2.60;;;;;;;1.49;100.00;102063.69;4896221;29;20303;-68
2021/04/13 00:36:33;;;;;;;3.10;2.80;;;;;;;1.43;100.00;102065.22;4912090;29;20228;-69
2021/04/13 00:39:00;;;;;;;2.80;2.50;;;;;;;1.44;100.00;102066.88;4912459;29;20206;-70
2021/04/13 00:41:29;;;;;;;3.43;2.67;;;;;;;1.49;100.00;102075.19;4911680;29;20224;-69
2021/04/13 00:43:57;;;;;;;4.47;3.20;;;;;;;1.44;100.00;102066.06;4911652;29;20185;-69
2021/04/13 00:46:35;;;;;;;4.23;2.97;;;;;;;1.38;100.00;102072.13;4911528;29;20231;-68
2021/04/13 00:49:03;;;;;;;4.27;3.10;;;;;;;1.25;100.00;102064.69;4912259;29;20203;-68
2021/04/13 00:51:34;;;;;;;3.10;2.73;;;;;;;1.18;100.00;102071.75;4895878;29;20235;-68
2021/04/13 00:54:03;;;;;;;4.07;3.23;;;;;;;1.16;100.00;102064.91;4911293;29;20213;-69
2021/04/13 00:56:32;;;;;;;3.47;2.90;;;;;;;1.10;100.00;102070.13;4895878;29;20290;-70
2021/04/13 00:59:05;;;;;;;4.37;3.10;;;;;;;1.23;100.00;102071.22;4912487;29;20218;-69
2021/04/13 01:01:37;;;;;;;3.53;3.03;;;;;;;1.12;100.00;102070.78;4911550;29;20846;-69
2021/04/13 01:04:08;;;;;;;4.57;3.63;;;;;;;1.22;100.00;102073.06;4911802;29;20192;-69
2021/04/13 01:06:35;;;;;;;7.93;3.77;;;;;;;1.45;100.00;102073.91;4911429;29;20286;-69
2021/04/13 01:09:11;;;;;;;4.10;3.70;;;;;;;1.24;100.00;102075.56;4898542;29;20208;-70
2021/04/13 01:11:42;;;;;;;5.23;3.50;;;;;;;1.25;100.00;102070.03;4914720;29;20781;-71
2021/04/13 01:14:08;;;;;;;5.47;3.77;;;;;;;1.19;100.00;102068.06;4915530;29;20247;-69
2021/04/13 01:16:42;;;;;;;5.97;3.63;;;;;;;1.17;100.00;102067.41;4899392;29;20669;-69
2021/04/13 01:19:21;;;;;;;5.53;3.60;;;;;;;1.11;100.00;102071.81;4915681;29;20223;-70
2021/04/13 01:21:50;;;;;;;4.13;3.70;;;;;;;1.02;100.00;102070.19;4897998;29;20232;-69
2021/04/13 01:24:29;;;;;;;4.43;4.03;;;;;;;1.13;100.00;102068.75;4916826;29;20196;-69
2021/04/13 01:27:00;;;;;;;4.63;4.10;;;;;;;1.02;100.00;102064.84;4914772;29;20227;-70
2021/04/13 01:29:26;;;;;;;5.10;4.23;;;;;;;1.15;100.00;102071.25;4899667;29;20220;-69
2021/04/13 01:31:58;;;;;;;5.37;4.17;;;;;;;1.12;100.00;102065.44;4913910;29;20267;-69
2021/04/13 01:34:33;;;;;;;4.40;4.00;;;;;;;1.34;100.00;102066.28;4913259;29;20216;-69
2021/04/13 01:39:56;;;;;;;5.20;4.60;;;;;;;1.33;100.00;102064.63;4889884;29;20229;-69
2021/04/13 01:42:23;;;;;;;6.37;4.07;;;;;;;1.39;100.00;102061.25;4894795;29;20547;-70
2021/04/13 01:44:50;;;;;;;7.13;5.37;;;;;;;1.42;100.00;102063.53;4896298;29;21028;-70
2021/04/13 01:47:19;;;;;;;5.77;4.90;;;;;;;1.50;100.00;102059.97;4895782;29;20281;-69
2021/04/13 01:50:16;;;;;;;6.40;4.77;;;;;;;1.42;100.00;102060.03;4895946;29;20217;-69
2021/04/13 01:52:44;;;;;;;6.90;4.70;;;;;;;1.17;100.00;102054.03;4876555;29;20807;-70
2021/04/13 01:55:23;;;;;;;5.00;4.23;;;;;;;1.22;100.00;102057.00;4895486;29;20587;-70
2021/04/13 01:57:56;;;;;;;6.97;4.67;;;;;;;1.12;100.00;102054.72;4895784;29;20570;-70
2021/04/13 02:00:32;;;;;;;6.83;4.57;;;;;;;1.15;100.00;102058.75;4895298;29;20257;-70
2021/04/13 02:03:10;;;;;;;6.47;4.67;;;;;;;1.14;100.00;102054.38;4895185;29;20625;-70
2021/04/13 02:05:37;;;;;;;7.40;4.67;;;;;;;1.06;100.00;102060.81;4895295;29;20287;-70
2021/04/13 02:08:20;;;;;;;6.27;4.40;;;;;;;1.10;100.00;102052.25;4896148;29;20699;-70
2021/04/13 02:11:07;;;;;;;6.60;4.63;;;;;;;1.20;100.00;102047.50;4895834;29;20602;-69
2021/04/13 02:13:39;;;;;;;5.77;4.70;;;;;;;1.29;100.00;102046.44;4894911;29;20217;-69
2021/04/13 02:16:05;;;;;;;5.93;4.57;;;;;;;1.23;100.00;102058.69;4894840;29;20715;-69
2021/04/13 02:18:50;;;;;;;5.70;4.83;;;;;;;1.25;100.00;102056.66;4896906;29;20253;-69
2021/04/13 02:21:22;;;;;;;6.60;5.13;;;;;;;1.24;100.00;102060.31;4894486;29;20257;-69
2021/04/13 02:23:54;;;;;;;5.03;4.53;;;;;;;1.12;100.00;102065.44;4894890;29;20185;-69
2021/04/13 02:26:20;;;;;;;6.37;4.63;;;;;;;1.10;100.00;102062.09;4894844;29;20259;-69
2021/04/13 02:28:46;;;;;;;5.50;4.50;;;;;;;1.32;100.00;102062.97;4896867;29;20711;-69
2021/04/13 02:31:36;;;;;;;4.77;4.33;;;;;;;1.23;100.00;102072.06;4895010;29;20232;-69
2021/04/13 02:34:01;;;;;;;6.03;4.70;;;;;;;1.19;100.00;102062.72;4894718;29;20220;-69
2021/04/13 02:36:33;;;;;;;5.97;4.33;;;;;;;1.46;100.00;102067.53;4894264;29;20236;-69
2021/04/13 02:39:01;;;;;;;5.40;4.50;;;;;;;1.55;100.00;102069.13;4895572;29;20679;-69
2021/04/13 02:41:34;;;;;;;6.00;4.83;;;;;;;1.47;100.00;102066.53;4894750;29;20232;-69
2021/04/13 02:44:08;;;;;;;5.83;4.50;;;;;;;1.47;100.00;102066.53;4894993;29;20321;-69
2021/04/13 02:46:34;;;;;;;6.43;4.60;;;;;;;1.57;100.00;102065.25;4897073;29;20770;-70
2021/04/13 02:49:12;;;;;;;6.90;4.83;;;;;;;1.45;100.00;102068.56;4867562;29;20223;-69
2021/04/13 02:51:53;;;;;;;7.53;4.60;;;;;;;1.41;100.00;102071.75;4914173;29;20238;-69
2021/04/13 02:54:23;;;;;;;8.63;4.60;;;;;;;1.45;100.00;102071.22;4899011;29;20211;-70
2021/04/13 02:56:54;;;;;;;6.10;4.53;;;;;;;1.42;100.00;102068.91;4898925;29;20239;-69
2021/04/13 02:59:25;;;;;;;6.30;4.43;;;;;;;1.33;100.00;102063.78;4882724;29;20235;-70
2021/04/13 03:02:05;;;;;;;6.33;4.80;;;;;;;1.25;100.00;102067.34;4878169;29;20316;-70
2021/04/13 03:04:35;;;;;;;6.87;4.90;;;;;;;1.45;100.00;102065.00;4896223;29;20195;-69
2021/04/13 03:07:03;;;;;;;7.23;4.83;;;;;;;1.45;100.00;102068.56;4871422;29;20295;-70
2021/04/13 03:09:36;;;;;;;5.47;4.67;;;;;;;1.23;100.00;102064.03;4888744;29;20616;-69
2021/04/13 03:12:03;;;;;;;6.20;4.70;;;;;;;1.23;100.00;102071.22;4891094;29;20243;-70
2021/04/13 03:14:54;;;;;;;7.10;4.47;;;;;;;1.36;100.00;102074.97;4897633;29;20215;-69
2021/04/13 03:17:20;;;;;;;8.17;4.53;;;;;;;1.38;100.00;102072.94;4897164;29;20232;-69
2021/04/13 03:19:47;;;;;;;8.37;4.70;;;;;;;1.37;100.00;102073.13;4906398;29;20220;-69
2021/04/13 03:22:16;;;;;;;7.77;4.43;;;;;;;1.39;100.00;102076.44;4904221;29;20228;-69
2021/04/13 03:24:46;;;;;;;5.40;4.17;;;;;;;1.45;100.00;102079.25;4912829;29;20196;-70
2021/04/13 03:27:15;;;;;;;9.00;4.50;;;;;;;1.43;100.00;102075.94;4912949;29;20315;-70
2021/04/13 03:29:49;;;;;;;7.03;4.20;;;;;;;1.55;100.00;102072.63;4912737;29;20690;-70
2021/04/13 03:32:15;;;;;;;7.40;4.17;;;;;;;1.54;100.00;102068.31;4895807;29;20689;-69
2021/04/13 03:34:43;;;;;;;6.23;4.50;;;;;;;1.55;100.00;102074.47;4896200;29;20264;-69
2021/04/13 03:37:09;;;;;;;5.17;3.93;;;;;;;1.51;100.00;102073.19;4865458;29;20239;-69
2021/04/13 03:39:37;;;;;;;6.43;4.33;;;;;;;1.54;100.00;102070.97;4865137;29;20205;-70
2021/04/13 03:42:03;;;;;;;7.23;4.40;;;;;;;1.65;100.00;102075.09;4896283;29;20220;-70
2021/04/13 03:44:28;;;;;;;7.80;4.23;;;;;;;1.62;100.00;102076.25;4882071;29;20665;-70
2021/04/13 03:46:54;;;;;;;7.13;4.07;;;;;;;1.57;100.00;102069.78;4900033;29;20220;-69
2021/04/13 03:49:31;;;;;;;8.07;4.70;;;;;;;1.53;100.00;102076.50;4883181;29;20227;-70
2021/04/13 03:52:08;;;;;;;7.43;4.47;;;;;;;1.61;100.00;102076.44;4895854;29;20275;-70
2021/04/13 03:54:38;;;;;;;8.63;4.20;;;;;;;1.75;100.00;102075.66;4893054;29;20213;-70
2021/04/13 03:57:07;;;;;;;7.63;3.90;;;;;;;1.73;100.00;102083.03;4884839;29;20236;-70
2021/04/13 03:59:36;;;;;;;6.53;4.20;;;;;;;1.59;100.00;102083.81;4895007;29;20820;-69
2021/04/13 04:02:04;;;;;;;9.20;3.87;;;;;;;1.55;100.00;102085.19;4911282;29;20323;-69
2021/04/13 04:04:32;;;;;;;6.77;4.40;;;;;;;1.38;100.00;102086.31;4896943;29;20734;-70
2021/04/13 04:09:46;;;;;;;6.77;4.40;;;;;;;1.66;100.00;102103.50;4913832;29;20231;-69
2021/04/13 04:12:15;;;;;;;9.43;4.00;;;;;;;1.94;100.00;102098.25;4911136;29;20231;-68
2021/04/13 04:14:41;;;;;;;7.00;4.30;;;;;;;1.80;100.00;102100.06;4912647;29;20227;-69
2021/04/13 04:17:16;;;;;;;5.80;3.43;;;;;;;1.84;100.00;102106.72;4913477;29;20602;-70
2021/04/13 04:19:55;;;;;;;6.63;3.93;;;;;;;1.81;100.00;102099.03;4912714;29;20891;-70
2021/04/13 04:22:24;;;;;;;46.43;27.60;;;;;;;1.92;100.00;102110.97;4895459;29;20224;-71
2021/04/13 04:24:50;;;;;;;9.97;6.00;;;;;;;1.77;100.00;102105.75;4880894;29;20181;-72
2021/04/13 04:27:15;;;;;;;19.83;10.50;;;;;;;1.89;100.00;102109.66;4882807;29;20224;-72
2021/04/13 04:29:48;;;;;;;9.27;5.90;;;;;;;2.01;100.00;102104.50;4910894;29;20224;-72
2021/04/13 04:32:29;;;;;;;8.93;4.90;;;;;;;2.00;100.00;102116.25;4877557;29;20231;-72
2021/04/13 04:34:59;;;;;;;36.93;24.07;;;;;;;2.10;100.00;102119.50;4913484;29;20267;-73
2021/04/13 04:37:36;;;;;;;11.60;3.97;;;;;;;1.98;100.00;102126.31;4880816;29;20224;-70
2021/04/13 04:40:16;;;;;;;6.90;3.37;;;;;;;2.23;100.00;102119.69;4866516;29;20192;-70
2021/04/13 04:42:49;;;;;;;5.53;3.53;;;;;;;2.29;100.00;102119.81;4881465;29;20246;-73
2021/04/13 04:45:42;;;;;;;7.10;3.47;;;;;;;2.12;100.00;102120.13;4900397;29;20655;-70
2021/04/13 04:48:26;;;;;;;5.73;3.47;;;;;;;2.06;100.00;102133.44;4916144;29;20212;-70
2021/04/13 04:50:57;;;;;;;6.37;4.53;;;;;;;1.97;100.00;102127.31;4869494;29;20736;-71
2021/04/13 04:53:26;;;;;;;6.43;3.93;;;;;;;2.00;100.00;102131.50;4884819;29;20224;-70
2021/04/13 04:55:52;;;;;;;6.53;3.87;;;;;;;2.36;100.00;102138.66;4903295;29;20264;-70
2021/04/13 04:58:18;;;;;;;10.43;5.10;;;;;;;2.44;100.00;102138.59;4903568;29;20204;-70
2021/04/13 05:00:44;;;;;;;9.23;4.93;;;;;;;2.44;100.00;102138.59;4902162;29;20303;-71
2021/04/13 05:03:09;;;;;;;5.63;3.90;;;;;;;2.56;100.00;102147.84;4920079;29;20204;-71
2021/04/13 05:05:35;;;;;;;6.27;3.77;;;;;;;2.53;100.00;102148.22;4903483;29;20236;-69
2021/04/13 05:08:03;;;;;;;11.83;3.60;;;;;;;2.38;100.00;102142.84;4918715;29;20208;-69
2021/04/13 05:10:29;;;;;;;7.77;3.50;;;;;;;2.24;100.00;102142.00;4885404;29;20224;-71
2021/04/13 05:12:54;;;;;;;7.47;3.70;;;;;;;2.38;100.00;102150.03;4884297;29;20227;-71
2021/04/13 05:15:20;;;;;;;7.60;3.67;;;;;;;2.42;100.00;102152.19;4897778;29;20184;-72
2021/04/13 05:17:46;;;;;;;8.67;3.63;;;;;;;2.50;100.00;102145.91;4915445;29;20623;-72
2021/04/13 05:20:12;;;;;;;10.07;6.40;;;;;;;2.57;100.00;102144.97;4868968;29;20193;-71
2021/04/13 05:22:38;;;;;;;9.60;6.10;;;;;;;2.46;100.00;102152.66;4883875;29;20195;-71
2021/04/13 05:25:04;;;;;;;6.60;4.10;;;;;;;2.62;100.00;102157.81;4914529;29;20200;-71
2021/04/13 05:27:30;;;;;;;4.73;3.80;;;;;;;2.61;100.00;102145.44;4881191;29;20189;-71
2021/04/13 05:29:55;;;;;;;9.30;4.00;;;;;;;2.76;100.00;102166.69;4904883;29;20335;-72
2021/04/13 05:32:25;;;;;;;8.10;3.60;;;;;;;2.71;100.00;102161.06;4882766;29;20299;-70
2021/04/13 05:34:54;;;;;;;8.30;3.93;;;;;;;2.70;100.00;102162.06;4879071;29;20410;-72
2021/04/13 05:37:19;;;;;;;6.13;3.90;;;;;;;2.85;100.00;102160.22;4910139;29;20224;-71
2021/04/13 05:39:47;;;;;;;7.67;4.33;;;;;;;2.66;100.00;102159.13;4895945;29;20216;-72
2021/04/13 05:42:21;;;;;;;7.20;4.00;;;;;;;2.93;100.00;102162.84;4863839;29;20255;-70
2021/04/13 05:44:50;;;;;;;9.73;4.43;;;;;;;3.01;100.00;102159.22;4881379;29;20200;-71
2021/04/13 05:47:16;;;;;;;6.97;4.13;;;;;;;2.89;100.00;102158.81;4898128;29;20598;-71
2021/04/13 05:49:44;;;;;;;8.57;4.07;;;;;;;3.08;100.00;102167.16;4899693;29;20306;-70
2021/04/13 05:52:10;;;;;;;9.53;4.53;;;;;;;3.07;100.00;102170.00;4915872;29;20232;-72
2021/04/13 05:54:38;;;;;;;4.80;3.70;;;;;;;2.95;100.00;102166.16;4898132;29;20240;-70
2021/04/13 05:57:04;;;;;;;7.07;3.17;;;;;;;3.03;100.00;102171.41;4914485;29;20843;-71
2021/04/13 05:59:33;;;;;;;8.43;3.70;;;;;;;3.04;100.00;102170.41;4899822;29;20212;-70
2021/04/13 06:01:59;;;;;;;4.33;2.77;;;;;;;3.22;100.00;102173.50;4883016;29;20369;-70
2021/04/13 06:04:26;;;;;;;6.77;3.17;;;;;;;3.09;100.00;102166.13;4915482;29;20630;-69
2021/04/13 06:06:52;;;;;;;6.80;3.10;;;;;;;3.25;100.00;102168.59;4899208;29;20220;-71
2021/04/13 06:09:18;;;;;;;6.27;3.03;;;;;;;3.29;100.00;102169.06;4914967;29;20215;-71
2021/04/13 06:11:43;;;;;;;5.13;2.90;;;;;;;3.45;100.00;102169.66;4881563;29;20947;-69
2021/04/13 06:14:10;;;;;;;10.63;2.90;;;;;;;3.30;100.00;102179.63;4899191;29;20698;-70
2021/04/13 06:16:40;;;;;;;4.40;2.70;;;;;;;3.50;100.00;102176.13;4916509;29;20784;-70
2021/04/13 06:19:06;;;;;;;5.50;2.67;;;;;;;3.51;100.00;102185.84;4892733;29;20248;-71
2021/04/13 06:21:32;;;;;;;4.23;2.57;;;;;;;3.63;100.00;102178.97;4923862;29;20243;-71
2021/04/13 06:23:58;;;;;;;5.13;3.50;;;;;;;3.83;100.00;102180.00;4907566;29;20284;-71
2021/04/13 06:26:28;;;;;;;5.80;2.50;;;;;;;3.80;100.00;102183.06;4924139;29;20224;-70
2021/04/13 06:28:57;;;;;;;5.47;2.50;;;;;;;3.82;100.00;102183.69;4908687;29;20208;-70
2021/04/13 06:31:22;;;;;;;7.10;2.70;;;;;;;3.97;100.00;102184.47;4901807;29;20259;-71
2021/04/13 06:33:48;;;;;;;4.77;2.27;;;;;;;4.04;100.00;102188.06;4885582;29;20219;-72
2021/04/13 06:36:18;;;;;;;5.27;2.47;;;;;;;4.07;100.00;102190.38;4900879;29;20773;-70
2021/04/13 06:38:50;;;;;;;4.27;2.40;;;;;;;4.31;100.00;102191.63;4900583;29;20212;-71
2021/04/13 06:41:51;;;;;;;4.27;1.83;;;;;;;4.20;100.00;102198.56;4900443;29;20227;-73
2021/04/13 06:44:23;;;;;;;3.50;2.00;;;;;;;4.37;100.00;102198.91;4886354;29;20204;-71
2021/04/13 06:47:23;;;;;;;5.03;1.90;;;;;;;4.25;100.00;102189.72;4916105;29;20224;-70
2021/04/13 06:50:32;;;;;;;4.53;1.90;;;;;;;4.45;100.00;102193.41;4915871;29;20222;-71
2021/04/13 06:53:14;;;;;;;5.30;1.63;;;;;;;4.36;100.00;102202.63;4898724;29;20232;-71
2021/04/13 06:55:52;;;;;;;4.43;1.73;;;;;;;4.25;100.00;102200.47;4901199;29;20238;-71
2021/04/13 06:58:35;;;;;;;5.50;2.00;;;;;;;4.41;100.00;102204.72;4916335;29;20208;-70
2021/04/13 07:01:08;;;;;;;5.70;1.83;;;;;;;4.63;100.00;102202.63;4915715;29;20228;-71
2021/04/13 07:04:04;;;;;;;6.73;2.73;;;;;;;4.76;100.00;102202.72;4915179;29;20188;-71
2021/04/13 07:06:43;;;;;;;7.07;1.90;;;;;;;4.60;100.00;102204.88;4913270;29;20756;-70
2021/04/13 07:09:17;;;;;;;3.07;1.57;;;;;;;4.80;100.00;102204.00;4898314;29;20243;-71
2021/04/13 07:12:24;;;;;;;3.40;1.60;;;;;;;4.96;100.00;102200.97;4897121;29;20829;-71
2021/04/13 07:14:56;;;;;;;5.77;2.00;;;;;;;5.36;100.00;102211.75;4914829;29;20304;-71
2021/04/13 07:17:38;;;;;;;4.03;1.80;;;;;;;5.32;100.00;102209.66;4898285;29;20318;-71
2021/04/13 07:20:18;;;;;;;3.93;1.80;;;;;;;5.55;100.00;102219.06;4897893;29;20281;-71
2021/04/13 07:22:48;;;;;;;4.43;1.80;;;;;;;5.33;100.00;102222.94;4896709;29;20188;-70
2021/04/13 07:25:24;;;;;;;5.17;1.60;;;;;;;5.56;100.00;102231.53;4897302;29;20192;-71
2021/04/13 07:28:06;;;;;;;5.87;2.20;;;;;;;5.53;100.00;102224.69;4883087;29;20214;-71
2021/04/13 07:30:50;;;;;;;7.23;2.23;;;;;;;5.76;100.00;102231.41;4897093;29;20235;-72
2021/04/13 07:33:22;;;;;;;5.37;1.97;;;;;;;6.42;99.28;102227.81;4897215;29;20258;-71
2021/04/13 07:35:50;;;;;;;8.27;2.10;;;;;;;6.20;100.00;102234.44;4882247;29;20275;-71
2021/04/13 07:38:23;;;;;;;6.30;2.33;;;;;;;6.01;99.90;102248.72;4909340;29;20208;-71
2021/04/13 07:40:53;;;;;;;3.83;2.30;;;;;;;6.13;100.00;102241.69;4893452;29;20383;-72
2021/04/13 07:43:23;;;;;;;5.80;1.83;;;;;;;5.75;100.00;102256.72;4862596;29;20200;-71
2021/04/13 07:45:50;;;;;;;5.90;2.03;;;;;;;5.74;100.00;102244.28;4893986;29;20699;-71
2021/04/13 07:48:15;;;;;;;6.13;1.90;;;;;;;5.78;100.00;102250.91;4878699;29;20201;-72
2021/04/13 07:50:55;;;;;;;7.07;1.90;;;;;;;6.46;99.31;102245.25;4894804;29;20232;-71
2021/04/13 07:53:30;;;;;;;6.80;1.97;;;;;;;6.13;97.91;102248.94;4877763;29;20939;-71
2021/04/13 07:56:17;;;;;;;3.87;1.97;;;;;;;6.06;97.83;102257.00;4894372;29;20239;-71
2021/04/13 07:58:50;;;;;;;9.10;2.80;;;;;;;6.36;100.00;102252.94;4863653;29;20308;-70
2021/04/13 08:01:16;;;;;;;4.53;1.87;;;;;;;6.50;95.42;102244.63;4877755;29;20251;-70
2021/04/13 08:03:41;;;;;;;7.40;2.00;;;;;;;6.56;95.74;102252.72;4862170;29;20989;-72
2021/04/13 08:06:34;;;;;;;6.80;2.27;;;;;;;6.83;94.04;102254.41;4878455;29;20622;-71
2021/04/13 08:09:14;;;;;;;9.97;2.23;;;;;;;6.75;92.78;102256.47;4878510;29;20281;-71
2021/04/13 08:12:14;;;;;;;8.80;2.20;;;;;;;7.10;92.98;102247.91;4892888;29;20229;-74
2021/04/13 08:15:04;;;;;;;6.37;1.80;;;;;;;7.36;91.26;102252.22;4895040;29;20212;-72
2021/04/13 08:17:31;;;;;;;5.33;1.67;;;;;;;7.38;90.22;102250.13;4892983;29;20308;-72
2021/04/13 08:20:08;;;;;;;5.47;1.83;;;;;;;7.17;90.27;102254.13;4878722;29;20192;-70
2021/04/13 08:22:56;;;;;;;6.47;2.00;;;;;;;7.30;90.84;102247.63;4892818;29;20311;-70
2021/04/13 08:25:48;;;;;;;8.83;1.93;;;;;;;7.44;88.24;102249.25;4862362;29;20199;-72
2021/04/13 08:28:28;;;;;;;7.97;1.73;;;;;;;7.37;87.59;102253.84;4877263;29;20296;-71
2021/04/13 08:34:15;;;;;;;6.13;1.50;;;;;;;7.67;82.52;102249.59;4894140;29;20217;-72
2021/04/13 08:36:48;;;;;;;7.70;1.80;;;;;;;7.71;84.99;102250.84;4877726;29;20249;-72
2021/04/13 08:39:27;;;;;;;5.80;1.67;;;;;;;7.56;83.71;102250.25;4894961;29;20213;-72
2021/04/13 08:42:22;;;;;;;5.97;1.60;;;;;;;7.59;87.05;102255.25;4861632;29;20733;-71
2021/04/13 08:44:58;;;;;;;7.47;1.90;;;;;;;7.76;84.95;102253.72;4894076;29;20233;-71
2021/04/13 08:47:48;;;;;;;6.30;1.80;;;;;;;7.84;81.41;102251.59;4908723;29;20228;-70
2021/04/13 08:50:34;;;;;;;4.83;1.43;;;;;;;7.79;82.63;102250.59;4881091;29;20751;-72
2021/04/13 08:53:06;;;;;;;4.07;1.27;;;;;;;7.79;81.92;102247.88;4896675;29;20267;-71
2021/04/13 08:55:40;;;;;;;4.53;1.60;;;;;;;7.31;83.85;102249.31;4881128;29;20231;-71
2021/04/13 08:58:17;;;;;;;6.73;1.60;;;;;;;7.60;84.40;102256.06;4897074;29;20216;-72
2021/04/13 09:00:45;;;;;;;7.60;1.70;;;;;;;7.64;80.39;102250.03;4912977;29;20247;-74
2021/04/13 09:03:21;;;;;;;5.13;1.50;;;;;;;7.69;83.04;102256.47;4896504;29;20556;-70
2021/04/13 09:05:48;;;;;;;7.97;1.40;;;;;;;8.19;78.07;102244.78;4866483;29;20717;-72
2021/04/13 09:08:31;;;;;;;5.93;1.57;;;;;;;8.51;78.15;102241.81;4865911;29;20208;-72
2021/04/13 09:11:11;;;;;;;5.03;1.30;;;;;;;8.29;74.96;102250.53;4880631;29;20586;-71
2021/04/13 09:13:43;;;;;;;5.37;1.53;;;;;;;8.80;73.48;102238.47;4881105;29;20220;-72
2021/04/13 09:16:17;;;;;;;5.10;1.43;;;;;;;8.94;72.20;102228.09;4865323;29;20232;-70
2021/04/13 09:18:45;;;;;;;4.20;1.70;;;;;;;8.33;67.30;102251.75;4866591;29;20287;-70
2021/04/13 09:21:20;;;;;;;4.57;1.07;;;;;;;8.28;68.88;102249.72;4912626;29;20252;-71
2021/04/13 09:23:59;;;;;;;5.67;1.40;;;;;;;8.51;67.60;102239.94;4914804;29;20187;-71
2021/04/13 09:26:51;;;;;;;5.73;1.30;;;;;;;8.95;66.87;102234.34;4896166;29;20224;-71
2021/04/13 09:29:55;;;;;;;3.73;1.10;;;;;;;8.57;66.17;102236.38;4898255;29;20212;-70
2021/04/13 09:32:23;;;;;;;6.23;1.40;;;;;;;7.87;70.24;102253.03;4858303;29;20236;-71
2021/04/13 09:35:03;;;;;;;5.57;1.27;;;;;;;8.12;70.53;102244.81;4892263;29;20868;-72
2021/04/13 09:37:46;;;;;;;6.47;1.30;;;;;;;8.17;69.95;102236.88;4914123;29;20216;-71
2021/04/13 09:40:37;;;;;;;5.30;1.10;;;;;;;8.65;67.97;102225.25;4916257;29;20180;-71
2021/04/13 09:43:22;;;;;;;5.53;1.40;;;;;;;8.58;65.65;102226.34;4885083;29;20826;-71
2021/04/13 09:46:00;;;;;;;6.40;1.30;;;;;;;8.97;62.51;102224.09;4876767;29;20236;-71
2021/04/13 09:48:53;;;;;;;5.53;1.27;;;;;;;8.58;60.25;102229.06;4896637;29;20212;-73
2021/04/13 09:51:56;;;;;;;3.60;1.10;;;;;;;8.69;58.31;102222.94;4928628;29;20323;-71
2021/04/13 09:54:42;;;;;;;5.27;1.43;;;;;;;9.21;60.44;102205.94;4885981;29;20295;-72
2021/04/13 09:57:36;;;;;;;3.67;1.20;;;;;;;8.49;60.22;102203.31;4873686;29;20335;-70
2021/04/13 10:00:07;;;;;;;3.47;1.10;;;;;;;8.59;62.67;102214.47;4871793;29;20208;-71
2021/04/13 10:03:01;;;;;;;5.30;1.60;;;;;;;8.39;66.20;102224.63;4916932;29;20661;-71
2021/04/13 10:05:29;;;;;;;8.13;1.90;;;;;;;8.14;69.51;102231.06;4917310;29;20694;-71
2021/04/13 10:08:02;;;;;;;5.43;1.40;;;;;;;8.43;68.75;102214.22;4884761;29;20219;-71
2021/04/13 10:10:42;;;;;;;5.83;1.33;;;;;;;8.40;68.81;102220.03;4883361;29;20236;-72
2021/04/13 10:13:30;;;;;;;5.23;1.13;;;;;;;8.65;60.99;102195.47;4898696;29;20216;-72
2021/04/13 10:16:25;;;;;;;4.80;1.27;;;;;;;8.60;58.70;102195.28;4869785;29;20315;-72
2021/04/13 10:19:27;;;;;;;4.33;1.00;;;;;;;9.73;58.12;102189.81;4884802;29;20331;-73
2021/04/13 10:22:07;;;;;;;5.63;1.40;;;;;;;9.84;56.39;102185.50;4897627;29;20259;-71
2021/04/13 10:24:52;;;;;;;2.77;0.90;;;;;;;9.97;54.47;102185.34;4869034;29;20271;-71
2021/04/13 10:28:01;;;;;;;5.77;1.40;;;;;;;9.33;53.40;102203.28;4884370;29;20224;-70
2021/04/13 10:31:00;;;;;;;3.43;1.00;;;;;;;9.63;52.78;102194.97;4883273;29;20243;-72
2021/04/13 10:33:41;;;;;;;4.37;1.00;;;;;;;10.14;51.50;102187.97;4915763;29;20217;-71
2021/04/13 10:36:09;;;;;;;5.70;1.17;;;;;;;10.26;53.27;102190.75;4914368;29;20274;-71
2021/04/13 10:38:47;;;;;;;4.30;1.10;;;;;;;9.36;54.54;102192.00;4913966;29;20299;-70
2021/04/13 10:41:18;;;;;;;3.80;1.17;;;;;;;9.54;56.75;102194.66;4914824;29;20232;-70
2021/04/13 10:44:02;;;;;;;16.80;8.87;;;;;;;9.23;56.23;102192.97;4914647;29;20180;-68
2021/04/13 10:46:36;;;;;;;5.03;1.07;;;;;;;8.72;55.35;102189.97;4914671;29;20290;-70
2021/04/13 10:49:13;;;;;;;3.33;1.10;;;;;;;8.50;57.58;102207.69;4868432;29;20215;-70
2021/04/13 10:52:01;;;;;;;5.80;1.40;;;;;;;8.61;57.35;102205.06;4914185;29;20239;-71
2021/04/13 10:54:52;;;;;;;5.40;1.83;;;;;;;8.60;59.12;102210.72;4898405;29;20659;-72
2021/04/13 10:57:54;;;;;;;6.77;1.97;;;;;;;8.70;59.96;102200.19;4914587;29;20659;-71
2021/04/13 11:00:48;;;;;;;5.40;1.33;;;;;;;8.82;61.09;102199.25;4913171;29;20188;-71
2021/04/13 11:03:50;;;;;;;5.63;1.47;;;;;;;9.25;61.68;102196.28;4884547;29;20239;-70
2021/04/13 11:06:58;;;;;;;6.90;1.40;;;;;;;9.43;60.15;102188.16;4912987;29;20647;-70
2021/04/13 11:10:03;;;;;;;6.20;1.60;;;;;;;9.64;61.90;102185.75;4897933;29;20262;-70
2021/04/13 11:12:37;;;;;;;6.40;1.60;;;;;;;9.64;57.36;102183.06;4913650;29;20322;-68
2021/04/13 11:15:27;;;;;;;3.77;0.83;;;;;;;9.89;52.04;102172.91;4914016;29;20208;-69
2021/04/13 11:18:08;;;;;;;16.00;9.47;;;;;;;9.43;53.16;102179.16;4914682;29;20217;-70
2021/04/13 11:20:43;;;;;;;31.30;17.73;;;;;;;9.28;55.54;102189.56;4897245;29;20224;-71
2021/04/13 11:23:35;;;;;;;6.40;1.60;;;;;;;9.05;58.38;102208.41;4897163;29;20677;-71
2021/04/13 11:26:27;;;;;;;3.33;0.90;;;;;;;8.04;71.36;102209.84;4897587;29;20232;-72
2021/04/13 11:29:05;;;;;;;4.47;1.10;;;;;;;7.62;77.01;102206.16;4914602;29;20250;-71
2021/04/13 11:31:37;;;;;;;4.47;1.10;;;;;;;7.60;79.21;102221.75;4880590;29;20255;-70
2021/04/13 11:34:12;;;;;;;3.43;0.97;;;;;;;7.97;83.47;102218.25;4893342;29;20224;-71
2021/04/13 11:36:41;;;;;;;3.63;1.03;;;;;;;7.99;81.83;102216.97;4878700;29;20224;-71
2021/04/13 11:39:47;;;;;;;4.17;1.30;;;;;;;8.23;80.97;102225.16;4894191;29;20213;-71
2021/04/13 11:42:24;;;;;;;5.53;1.73;;;;;;;7.93;82.35;102238.63;4840982;29;20233;-70
2021/04/13 11:45:27;;;;;;;3.00;1.17;;;;;;;8.02;80.27;102226.53;4879799;29;20295;-70
2021/04/13 11:48:04;;;;;;;3.17;0.80;;;;;;;8.46;76.28;102219.97;4894218;29;20287;-68
2021/04/13 11:50:33;;;;;;;2.30;1.10;;;;;;;8.33;73.41;102214.66;4894487;29;20217;-70
2021/04/13 11:53:05;;;;;;;3.63;1.10;;;;;;;8.36;72.69;102214.25;4877595;29;20316;-70
2021/04/13 11:55:31;;;;;;;5.40;1.10;;;;;;;8.15;72.72;102211.91;4893710;29;20224;-71
2021/04/13 11:58:24;;;;;;;6.93;1.20;;;;;;;8.93;69.83;102196.63;4894276;29;20233;-72
2021/04/13 12:00:53;;;;;;;3.90;1.43;;;;;;;9.33;68.24;102197.88;4893341;29;20262;-71
2021/04/13 12:03:18;;;;;;;6.43;1.37;;;;;;;9.19;67.22;102192.81;4893151;29;20185;-69
2021/04/13 12:05:49;;;;;;;6.67;1.20;;;;;;;9.02;66.52;102203.41;4893314;29;20761;-71
2021/04/13 12:08:30;;;;;;;5.60;1.83;;;;;;;9.29;68.87;102193.94;4894840;29;20284;-71
2021/04/13 12:11:04;;;;;;;8.07;1.40;;;;;;;9.28;60.62;102189.56;4894478;29;20742;-69
2021/04/13 12:13:48;;;;;;;3.30;1.53;;;;;;;9.43;59.90;102198.16;4892780;29;20311;-69